CPX401 Details

Departure: Seattle-Tacoma International Airport (KSEA)
Arrival: Miami International Airport (KMIA) at N/A
Route: SEA NORMY J90 MWH DLN DDY BFF SGF MEM MGM SZW PLYER JUULI SSCOT5
Notes:


Current Weather Information
KSEA 171653Z 20005KT 10SM SCT013 SCT027 OVC060 18/13 A3002 RMK AO2 SLP172 T01780128
KMIA 171653Z 14008KT 110V190 10SM SCT035 BKN050 BKN120 BKN250 33/23 A3009 RMK AO2 LTG DSNT NW SLP191 CB DSNT NW T03330228